Time;durP1;ratioP1;P1;durP2;ratioP2;P2;SDS_P1;SDS_P2;PMS_P1;PMS_P2;Temp;Humidity;BMP_temperature;BMP_pressure;BME280_temperature;BME280_humidity;BME280_pressure;Samples;Min_cycle;Max_cycle;Signal;HPM_P1;HPM_P2
2024/04/16 00:02:00;;;;;;;0.53;0.40;;;;;;;5.90;100.00;95526.91;5465873;26;20229;-74
2024/04/16 00:04:31;;;;;;;4.17;1.07;;;;;;;6.07;100.00;95532.75;5467080;26;20754;-75
2024/04/16 00:06:56;;;;;;;0.83;0.50;;;;;;;5.85;100.00;95531.81;5468936;26;20355;-74
2024/04/16 00:09:25;;;;;;;0.40;0.40;;;;;;;5.78;100.00;95515.13;5467630;26;20229;-73
2024/04/16 00:11:50;;;;;;;1.50;0.47;;;;;;;5.99;100.00;95518.06;5466926;26;20242;-75
2024/04/16 00:14:18;;;;;;;0.40;0.40;;;;;;;5.99;100.00;95507.59;5467344;26;20228;-74
2024/04/16 00:16:44;;;;;;;0.63;0.40;;;;;;;6.20;100.00;95512.13;5467624;26;20232;-75
2024/04/16 00:19:12;;;;;;;0.40;0.40;;;;;;;6.30;100.00;95510.13;5467217;26;20345;-73
2024/04/16 00:21:40;;;;;;;0.40;0.40;;;;;;;6.47;100.00;95509.06;5466669;26;20292;-75
2024/04/16 00:24:08;;;;;;;0.63;0.63;;;;;;;6.42;100.00;95498.28;5467283;26;20603;-74
2024/04/16 00:26:34;;;;;;;1.27;0.40;;;;;;;6.08;100.00;95495.16;5465878;26;20296;-75
2024/04/16 00:29:02;;;;;;;1.50;1.10;;;;;;;5.99;100.00;95512.81;5467511;26;20229;-74
2024/04/16 00:31:28;;;;;;;1.10;0.87;;;;;;;6.22;100.00;95504.09;5465530;26;20361;-75
2024/04/16 00:33:56;;;;;;;2.07;1.03;;;;;;;6.48;100.00;95497.63;5467533;26;20596;-74
2024/04/16 00:36:21;;;;;;;2.23;1.33;;;;;;;6.36;100.00;95485.88;5466895;26;20224;-75
2024/04/16 00:38:52;;;;;;;3.70;2.43;;;;;;;6.63;100.00;95482.00;5467200;26;20305;-74
2024/04/16 00:41:18;;;;;;;2.97;1.80;;;;;;;6.18;100.00;95466.97;5466226;26;20946;-74
2024/04/16 00:43:46;;;;;;;2.57;1.70;;;;;;;6.18;100.00;95471.41;5467278;26;20317;-72
2024/04/16 00:46:13;;;;;;;1.20;1.10;;;;;;;6.14;100.00;95470.13;5466886;26;20240;-75
2024/04/16 00:48:41;;;;;;;0.90;0.73;;;;;;;6.06;100.00;95478.81;5468201;26;20723;-75
2024/04/16 00:51:07;;;;;;;1.43;0.90;;;;;;;6.39;100.00;95464.63;5466340;26;20656;-75
2024/04/16 00:53:35;;;;;;;3.60;0.73;;;;;;;6.19;100.00;95466.00;5466059;26;20320;-74
2024/04/16 00:56:05;;;;;;;6.33;1.13;;;;;;;6.37;100.00;95460.56;5467062;26;20236;-73
2024/04/16 00:58:37;;;;;;;1.40;0.70;;;;;;;6.56;100.00;95460.13;5466458;26;20561;-74
2024/04/16 01:01:03;;;;;;;1.03;0.50;;;;;;;6.49;100.00;95461.78;5465460;26;20729;-76
2024/04/16 01:03:31;;;;;;;1.13;0.80;;;;;;;6.46;100.00;95470.78;5466407;26;20233;-76
2024/04/16 01:05:56;;;;;;;0.80;0.53;;;;;;;6.49;100.00;95460.00;5467912;26;20225;-75
2024/04/16 01:08:25;;;;;;;0.83;0.60;;;;;;;6.36;100.00;95459.72;5464795;26;20968;-74
2024/04/16 01:10:50;;;;;;;0.60;0.60;;;;;;;6.16;100.00;95473.38;5466047;26;20653;-74
2024/04/16 01:13:21;;;;;;;1.10;0.60;;;;;;;6.51;100.00;95451.97;5465163;26;20237;-74
2024/04/16 01:15:47;;;;;;;2.37;0.60;;;;;;;5.84;100.00;95456.97;5466929;26;20276;-75
2024/04/16 01:18:15;;;;;;;1.10;0.60;;;;;;;6.02;100.00;95444.50;5465698;26;20221;-75
2024/04/16 01:20:41;;;;;;;0.40;0.40;;;;;;;6.08;100.00;95448.09;5466818;26;20229;-75
2024/04/16 01:23:12;;;;;;;0.63;0.50;;;;;;;6.24;100.00;95460.28;5465879;26;20798;-74
2024/04/16 01:25:37;;;;;;;4.10;0.47;;;;;;;6.37;100.00;95461.34;5467110;26;20315;-73
2024/04/16 01:28:06;;;;;;;0.97;0.80;;;;;;;6.15;100.00;95451.63;5466434;26;20229;-75
2024/04/16 01:30:32;;;;;;;1.13;0.53;;;;;;;6.05;100.00;95440.56;5465588;26;20849;-75
2024/04/16 01:33:00;;;;;;;0.30;0.30;;;;;;;6.04;100.00;95444.16;5465891;26;20241;-75
2024/04/16 01:35:25;;;;;;;0.60;0.50;;;;;;;6.16;100.00;95434.13;5465487;26;20225;-73
2024/04/16 01:37:54;;;;;;;1.33;0.30;;;;;;;6.09;100.00;95441.84;5466705;26;20823;-73
2024/04/16 01:40:22;;;;;;;0.40;0.40;;;;;;;6.17;100.00;95441.84;5465294;26;20317;-75
2024/04/16 01:42:50;;;;;;;0.70;0.60;;;;;;;6.12;100.00;95423.22;5465160;26;20731;-75
2024/04/16 01:45:16;;;;;;;0.53;0.37;;;;;;;6.42;100.00;95396.25;5465180;26;20759;-73
2024/04/16 01:47:44;;;;;;;5.53;0.60;;;;;;;6.05;100.00;95392.69;5466662;26;20228;-73
2024/04/16 01:50:10;;;;;;;0.60;0.50;;;;;;;6.03;100.00;95430.44;5466350;26;20651;-74
2024/04/16 01:52:38;;;;;;;0.60;0.50;;;;;;;6.01;100.00;95433.22;5464592;26;20229;-73
2024/04/16 01:55:04;;;;;;;0.40;0.40;;;;;;;6.04;100.00;95429.47;5465956;26;20828;-74
2024/04/16 01:57:35;;;;;;;0.40;0.40;;;;;;;6.23;100.00;95414.97;5465448;26;20241;-75
2024/04/16 02:00:01;;;;;;;0.50;0.50;;;;;;;5.97;100.00;95407.56;5466953;26;20229;-74
2024/04/16 02:02:29;;;;;;;0.40;0.40;;;;;;;6.02;100.00;95407.88;5464283;26;20275;-73
2024/04/16 02:04:55;;;;;;;1.10;0.50;;;;;;;6.04;100.00;95400.69;5466309;26;20429;-76
2024/04/16 02:07:23;;;;;;;0.37;0.30;;;;;;;5.99;100.00;95409.03;5465830;26;20233;-75
2024/04/16 02:09:49;;;;;;;0.30;0.30;;;;;;;5.91;100.00;95395.19;5466798;26;20221;-75
2024/04/16 02:12:17;;;;;;;0.60;0.50;;;;;;;6.08;100.00;95389.72;5464468;26;20982;-73
2024/04/16 02:14:45;;;;;;;0.63;0.50;;;;;;;6.21;100.00;95398.66;5463907;26;20350;-73
2024/04/16 02:17:14;;;;;;;0.53;0.50;;;;;;;5.85;100.00;95395.88;5466311;26;20229;-75
2024/04/16 02:19:40;;;;;;;3.90;0.77;;;;;;;5.85;100.00;95388.81;5465215;26;20217;-74
2024/04/16 02:22:08;;;;;;;1.90;0.70;;;;;;;5.99;100.00;95380.28;5465358;26;20949;-75
2024/04/16 02:24:34;;;;;;;0.60;0.60;;;;;;;6.14;100.00;95381.19;5464717;26;20281;-75
2024/04/16 02:27:02;;;;;;;2.87;0.70;;;;;;;6.03;100.00;95375.53;5466227;26;20317;-73
2024/04/16 02:29:28;;;;;;;0.90;0.60;;;;;;;5.90;100.00;95375.25;5463208;26;20674;-74
2024/04/16 02:31:59;;;;;;;1.37;0.60;;;;;;;6.05;100.00;95387.44;5465145;26;20232;-73
2024/04/16 02:34:24;;;;;;;1.17;1.07;;;;;;;6.06;100.00;95384.66;5464620;26;20504;-75
2024/04/16 02:36:53;;;;;;;0.70;0.70;;;;;;;6.12;100.00;95398.84;5463826;26;20652;-75
2024/04/16 02:39:18;;;;;;;0.50;0.47;;;;;;;5.95;100.00;95405.13;5465575;26;20221;-75
2024/04/16 02:41:47;;;;;;;0.73;0.60;;;;;;;5.81;100.00;95389.34;5464109;26;20256;-73
2024/04/16 02:44:12;;;;;;;7.07;1.23;;;;;;;5.84;100.00;95392.44;5465950;26;20559;-75
2024/04/16 02:46:41;;;;;;;0.77;0.50;;;;;;;5.95;100.00;95386.84;5464539;26;20233;-75
2024/04/16 02:49:09;;;;;;;0.93;0.80;;;;;;;6.00;100.00;95388.94;5466630;26;20783;-76
2024/04/16 02:51:37;;;;;;;2.13;0.97;;;;;;;6.10;100.00;95385.16;5463078;26;20307;-73
2024/04/16 02:54:03;;;;;;;3.37;1.67;;;;;;;6.05;100.00;95385.63;5466141;26;20288;-75
2024/04/16 02:56:31;;;;;;;4.73;1.80;;;;;;;6.12;100.00;95386.59;5463858;26;20336;-76
2024/04/16 02:58:56;;;;;;;2.70;1.53;;;;;;;6.01;100.00;95385.31;5466266;26;20276;-74
2024/04/16 03:01:24;;;;;;;4.77;2.23;;;;;;;5.87;100.00;95378.19;5463546;26;20838;-74
2024/04/16 03:03:54;;;;;;;10.60;2.77;;;;;;;6.24;100.00;95393.06;5464811;26;20292;-75
2024/04/16 03:06:24;;;;;;;8.60;3.30;;;;;;;6.35;100.00;95384.84;5464969;26;20229;-73
2024/04/16 03:08:50;;;;;;;13.67;5.80;;;;;;;6.10;100.00;95379.91;5464942;26;20365;-74
2024/04/16 03:11:18;;;;;;;7.87;3.03;;;;;;;6.12;100.00;95388.38;5464503;26;20509;-75
2024/04/16 03:13:44;;;;;;;7.90;3.70;;;;;;;6.33;100.00;95384.19;5466480;26;20296;-74
2024/04/16 03:16:12;;;;;;;14.33;6.63;;;;;;;6.00;100.00;95400.22;5462862;26;20634;-73
2024/04/16 03:18:38;;;;;;;2.93;1.57;;;;;;;6.36;100.00;95394.31;5464418;26;20431;-74
2024/04/16 03:21:07;;;;;;;10.33;2.30;;;;;;;6.35;100.00;95390.09;5464769;26;20268;-75
2024/04/16 03:23:35;;;;;;;4.97;1.90;;;;;;;6.35;100.00;95390.09;5464643;26;20271;-75
2024/04/16 03:26:04;;;;;;;8.43;2.13;;;;;;;6.42;100.00;95372.69;5465087;26;20221;-76
2024/04/16 03:28:30;;;;;;;3.73;1.60;;;;;;;6.28;100.00;95389.13;5465693;26;20738;-75
2024/04/16 03:30:58;;;;;;;10.33;3.27;;;;;;;6.18;100.00;95392.94;5468044;26;20288;-73
2024/04/16 03:33:24;;;;;;;6.83;2.83;;;;;;;6.29;100.00;95395.19;5467189;26;20340;-73
2024/04/16 03:35:55;;;;;;;8.17;1.00;;;;;;;6.40;100.00;95387.78;5468824;26;20237;-75
2024/04/16 03:38:23;;;;;;;2.83;1.10;;;;;;;6.30;100.00;95387.16;5467487;26;20621;-74
2024/04/16 03:40:58;;;;;;;4.13;1.70;;;;;;;6.46;100.00;95394.91;5467322;26;20296;-74
2024/04/16 03:43:28;;;;;;;6.73;2.17;;;;;;;6.08;100.00;95406.25;5467439;26;20220;-74
2024/04/16 03:45:53;;;;;;;2.57;0.83;;;;;;;6.00;100.00;95404.66;5469010;26;20288;-75
2024/04/16 03:48:23;;;;;;;3.50;0.70;;;;;;;6.15;100.00;95404.56;5468495;26;20636;-74
2024/04/16 03:50:49;;;;;;;1.93;1.13;;;;;;;5.85;100.00;95407.13;5466860;26;20229;-74
2024/04/16 03:53:17;;;;;;;0.97;0.70;;;;;;;6.11;100.00;95390.19;5467152;26;20268;-74
2024/04/16 03:55:43;;;;;;;2.87;1.40;;;;;;;6.16;100.00;95384.44;5468178;26;20552;-75
2024/04/16 03:58:14;;;;;;;5.07;1.73;;;;;;;6.04;100.00;95393.66;5467687;26;20309;-75
2024/04/16 04:03:27;;;;;;;3.23;0.97;;;;;;;5.96;100.00;95419.00;5468825;26;20605;-73
2024/04/16 04:05:55;;;;;;;2.67;0.97;;;;;;;5.78;100.00;95406.19;5468490;26;20504;-75
2024/04/16 04:08:20;;;;;;;6.67;1.50;;;;;;;5.83;100.00;95388.19;5466670;26;20679;-75
2024/04/16 04:10:49;;;;;;;4.67;1.97;;;;;;;5.73;100.00;95386.75;5468628;26;20271;-74
2024/04/16 04:13:17;;;;;;;2.77;1.17;;;;;;;5.75;100.00;95382.97;5466224;26;20279;-75
2024/04/16 04:15:45;;;;;;;2.17;0.87;;;;;;;5.75;100.00;95380.34;5468006;26;20589;-74
2024/04/16 04:18:11;;;;;;;1.33;0.63;;;;;;;5.62;100.00;95405.38;5467002;26;20284;-74
2024/04/16 04:20:40;;;;;;;0.60;0.60;;;;;;;5.73;100.00;95410.25;5468361;26;20328;-74
2024/04/16 04:23:05;;;;;;;5.07;1.57;;;;;;;5.78;100.00;95405.34;5467332;26;20255;-75
2024/04/16 04:25:34;;;;;;;1.47;0.73;;;;;;;5.72;100.00;95412.03;5468100;26;20280;-74
2024/04/16 04:27:59;;;;;;;1.87;0.67;;;;;;;5.90;100.00;95420.50;5467844;26;20320;-74
2024/04/16 04:30:30;;;;;;;2.70;0.70;;;;;;;6.09;100.00;95426.16;5467722;26;20630;-75
2024/04/16 04:32:56;;;;;;;1.70;1.10;;;;;;;5.98;100.00;95417.06;5466745;26;20221;-74
2024/04/16 04:35:24;;;;;;;1.80;0.73;;;;;;;5.92;100.00;95417.72;5468074;26;20799;-74
2024/04/16 04:37:49;;;;;;;0.93;0.70;;;;;;;5.73;100.00;95423.31;5468837;26;20341;-75
2024/04/16 04:40:17;;;;;;;0.83;0.73;;;;;;;5.90;100.00;95422.31;5466905;26;20895;-74
2024/04/16 04:42:43;;;;;;;2.30;1.43;;;;;;;5.69;100.00;95428.06;5466591;26;20303;-74
2024/04/16 04:45:11;;;;;;;2.47;1.13;;;;;;;5.79;100.00;95415.66;5467806;26;20309;-73
2024/04/16 04:47:39;;;;;;;3.60;1.00;;;;;;;5.91;100.00;95413.50;5467689;26;20280;-73
2024/04/16 04:50:09;;;;;;;0.60;0.60;;;;;;;5.78;100.00;95416.63;5467502;26;20260;-74
2024/04/16 04:52:34;;;;;;;0.67;0.67;;;;;;;5.76;100.00;95438.69;5467031;26;20328;-74
2024/04/16 04:55:03;;;;;;;1.17;0.60;;;;;;;5.92;100.00;95443.88;5467522;26;20233;-74
2024/04/16 04:57:29;;;;;;;1.17;0.60;;;;;;;5.79;100.00;95431.34;5467159;26;20642;-73
2024/04/16 04:59:57;;;;;;;3.07;0.77;;;;;;;5.89;100.00;95437.16;5468622;26;20240;-74
2024/04/16 05:02:23;;;;;;;0.50;0.50;;;;;;;6.04;100.00;95432.88;5467587;26;20229;-73
2024/04/16 05:04:54;;;;;;;0.50;0.50;;;;;;;6.04;100.00;95443.34;5466596;26;20312;-75
2024/04/16 05:07:19;;;;;;;0.50;0.50;;;;;;;5.80;100.00;95453.06;5468165;26;20221;-74
2024/04/16 05:09:49;;;;;;;0.57;0.40;;;;;;;5.98;100.00;95456.28;5467423;26;20338;-73
2024/04/16 05:12:14;;;;;;;1.10;0.93;;;;;;;5.95;100.00;95427.88;5467024;26;20229;-74
2024/04/16 05:14:43;;;;;;;0.73;0.73;;;;;;;6.25;100.00;95431.34;5466928;26;20229;-73
2024/04/16 05:17:08;;;;;;;3.00;0.73;;;;;;;6.12;100.00;95440.69;5468252;26;20838;-73
2024/04/16 05:19:36;;;;;;;1.67;0.90;;;;;;;6.08;100.00;95445.47;5467265;26;20241;-74
2024/04/16 05:22:05;;;;;;;1.27;0.80;;;;;;;6.39;100.00;95446.31;5467306;26;20332;-73
2024/04/16 05:24:33;;;;;;;0.77;0.63;;;;;;;6.36;100.00;95446.63;5467499;26;20271;-73
2024/04/16 05:26:58;;;;;;;1.30;1.00;;;;;;;6.23;100.00;95451.59;5467488;26;20909;-74
2024/04/16 05:29:26;;;;;;;1.17;1.07;;;;;;;6.46;100.00;95449.06;5467787;26;20241;-73
2024/04/16 05:31:52;;;;;;;3.60;0.87;;;;;;;6.49;100.00;95444.31;5463863;26;20252;-74
2024/04/16 05:34:20;;;;;;;0.70;0.67;;;;;;;6.31;100.00;95456.00;5466276;26;20973;-73
2024/04/16 05:36:46;;;;;;;0.57;0.57;;;;;;;6.40;100.00;95449.72;5466489;26;20281;-74
2024/04/16 05:39:17;;;;;;;1.83;0.50;;;;;;;6.53;100.00;95457.84;5466961;26;20504;-73
2024/04/16 05:41:42;;;;;;;0.50;0.50;;;;;;;6.49;100.00;95454.78;5465442;26;20611;-73
2024/04/16 05:44:11;;;;;;;2.67;1.33;;;;;;;6.46;100.00;95464.75;5465702;26;20308;-74
2024/04/16 05:46:36;;;;;;;4.13;0.90;;;;;;;6.55;100.00;95464.53;5464624;26;20354;-74
2024/04/16 05:49:04;;;;;;;4.37;1.60;;;;;;;6.67;100.00;95460.56;5465751;26;20228;-73
2024/04/16 05:51:30;;;;;;;1.60;0.83;;;;;;;6.51;100.00;95462.44;5462760;26;20237;-73
2024/04/16 05:53:59;;;;;;;0.77;0.53;;;;;;;6.55;100.00;95472.38;5466108;26;20342;-73
2024/04/16 05:56:27;;;;;;;1.03;0.80;;;;;;;6.44;100.00;95472.78;5465737;26;20233;-72
2024/04/16 05:58:55;;;;;;;1.60;0.83;;;;;;;6.44;100.00;95482.41;5466652;26;20336;-74
2024/04/16 06:01:21;;;;;;;1.77;0.63;;;;;;;6.50;100.00;95473.91;5466278;26;20340;-74
2024/04/16 06:03:49;;;;;;;0.93;0.50;;;;;;;6.65;100.00;95477.44;5466588;26;20248;-74
2024/04/16 06:06:14;;;;;;;3.77;1.00;;;;;;;6.29;100.00;95477.09;5465927;26;20224;-74
2024/04/16 06:08:42;;;;;;;2.13;1.10;;;;;;;6.40;100.00;95479.34;5465985;26;20337;-73
2024/04/16 06:11:08;;;;;;;1.20;0.70;;;;;;;6.42;100.00;95479.19;5466500;26;20233;-73
2024/04/16 06:13:39;;;;;;;1.33;0.90;;;;;;;6.67;100.00;95481.50;5466638;26;20343;-73
2024/04/16 06:16:05;;;;;;;2.10;1.40;;;;;;;6.40;100.00;95481.97;5466850;26;20324;-73
2024/04/16 06:18:33;;;;;;;1.53;0.93;;;;;;;6.37;100.00;95482.28;5465981;26;20244;-73
2024/04/16 06:20:58;;;;;;;1.20;0.87;;;;;;;6.46;100.00;95489.13;5467206;26;20353;-74
2024/04/16 06:23:27;;;;;;;1.20;0.80;;;;;;;6.59;100.00;95478.91;5465074;26;20658;-74
2024/04/16 06:25:53;;;;;;;3.53;1.10;;;;;;;6.48;100.00;95484.53;5466079;26;20216;-74
2024/04/16 06:28:21;;;;;;;1.30;0.80;;;;;;;6.75;100.00;95477.03;5466788;26;20265;-74
2024/04/16 06:30:49;;;;;;;0.80;0.80;;;;;;;6.97;100.00;95475.44;5465184;26;20225;-72
2024/04/16 06:33:18;;;;;;;2.43;0.93;;;;;;;6.74;100.00;95478.00;5465943;26;20810;-74
2024/04/16 06:35:44;;;;;;;1.57;0.77;;;;;;;6.92;100.00;95472.50;5465474;26;20233;-74
2024/04/16 06:38:12;;;;;;;1.27;0.80;;;;;;;6.81;100.00;95475.50;5466315;26;20352;-74
2024/04/16 06:40:38;;;;;;;1.50;0.57;;;;;;;6.75;100.00;95466.56;5461030;26;20244;-74
2024/04/16 06:43:06;;;;;;;1.47;0.80;;;;;;;7.21;100.00;95462.19;5462633;26;21164;-74
2024/04/16 06:45:32;;;;;;;0.83;0.67;;;;;;;7.10;100.00;95463.38;5462966;26;20241;-74
2024/04/16 06:48:03;;;;;;;1.70;1.00;;;;;;;7.49;100.00;95467.50;5462969;26;20267;-73
2024/04/16 06:50:28;;;;;;;2.83;0.77;;;;;;;7.35;100.00;95459.59;5462990;26;20349;-74
2024/04/16 06:52:56;;;;;;;2.07;0.87;;;;;;;7.33;100.00;95467.63;5461597;26;20236;-74
2024/04/16 06:55:22;;;;;;;2.57;1.07;;;;;;;7.16;100.00;95461.88;5461281;26;20335;-74
2024/04/16 06:57:50;;;;;;;1.03;0.80;;;;;;;7.41;100.00;95453.66;5459920;26;20232;-74
2024/04/16 07:00:16;;;;;;;6.50;1.00;;;;;;;7.62;100.00;95451.97;5463927;26;20217;-74
2024/04/16 07:02:45;;;;;;;0.70;0.60;;;;;;;7.46;100.00;95452.13;5460893;26;20366;-74
2024/04/16 07:05:13;;;;;;;1.07;1.00;;;;;;;7.68;100.00;95451.25;5462186;26;20229;-74
2024/04/16 07:07:41;;;;;;;2.83;0.90;;;;;;;7.38;100.00;95461.84;5461365;26;20225;-74
2024/04/16 07:10:07;;;;;;;0.60;0.60;;;;;;;7.27;100.00;95447.38;5462546;26;20229;-74
2024/04/16 07:12:35;;;;;;;0.87;0.83;;;;;;;7.41;100.00;95453.66;5460892;26;20643;-74
2024/04/16 07:15:02;;;;;;;1.13;0.70;;;;;;;7.45;100.00;95453.13;5464527;26;20229;-73
2024/04/16 07:17:30;;;;;;;0.67;0.67;;;;;;;7.56;100.00;95447.47;5460795;26;20727;-72
2024/04/16 07:19:56;;;;;;;0.60;0.60;;;;;;;7.65;100.00;95456.03;5460723;26;20891;-74
2024/04/16 07:22:27;;;;;;;1.33;0.67;;;;;;;7.95;100.00;95453.28;5462354;26;20671;-74
2024/04/16 07:24:54;;;;;;;0.77;0.73;;;;;;;7.57;100.00;95456.94;5463765;26;20345;-73
2024/04/16 07:27:23;;;;;;;2.87;0.90;;;;;;;7.23;100.00;95447.06;5464694;26;20217;-74
2024/04/16 07:29:48;;;;;;;1.20;0.70;;;;;;;7.36;100.00;95446.31;5462892;26;20336;-74
2024/04/16 07:32:16;;;;;;;0.97;0.80;;;;;;;7.10;100.00;95452.09;5463573;26;20236;-74
2024/04/16 07:34:42;;;;;;;1.83;0.70;;;;;;;7.63;100.00;95450.97;5464028;26;20300;-73
2024/04/16 07:37:10;;;;;;;2.43;0.60;;;;;;;7.63;100.00;95447.56;5463464;26;20301;-74
2024/04/16 07:39:39;;;;;;;2.40;0.80;;;;;;;7.96;100.00;95454.91;5462931;26;20675;-73
2024/04/16 07:42:07;;;;;;;0.87;0.77;;;;;;;7.77;100.00;95446.78;5462805;26;20310;-73
2024/04/16 07:44:35;;;;;;;2.80;0.90;;;;;;;7.75;100.00;95440.88;5463128;26;20349;-74
2024/04/16 07:47:03;;;;;;;0.60;0.60;;;;;;;7.78;100.00;95437.88;5464172;26;20240;-73
2024/04/16 07:49:29;;;;;;;1.23;0.80;;;;;;;7.96;100.00;95436.56;5464789;26;20238;-74
2024/04/16 07:51:57;;;;;;;1.07;0.70;;;;;;;8.06;100.00;95431.88;5462647;26;20229;-74
2024/04/16 07:54:23;;;;;;;0.60;0.37;;;;;;;7.74;100.00;95434.84;5463752;26;20644;-74
2024/04/16 07:56:53;;;;;;;0.93;0.57;;;;;;;8.05;100.00;95433.66;5463192;26;20217;-74
2024/04/16 07:59:19;;;;;;;1.03;0.80;;;;;;;8.28;100.00;95421.28;5464472;26;20313;-74
2024/04/16 08:01:47;;;;;;;2.60;0.73;;;;;;;8.33;100.00;95431.25;5462670;26;20245;-74
2024/04/16 08:04:13;;;;;;;0.33;0.33;;;;;;;8.56;100.00;95423.03;5463783;26;20332;-74
2024/04/16 08:06:41;;;;;;;0.70;0.70;;;;;;;8.54;100.00;95425.06;5463495;26;20719;-74
2024/04/16 08:09:06;;;;;;;2.20;0.90;;;;;;;8.99;100.00;95408.97;5464000;26;20291;-74
2024/04/16 08:11:35;;;;;;;5.60;1.63;;;;;;;9.26;100.00;95416.91;5462388;26;20629;-74
2024/04/16 08:14:03;;;;;;;0.57;0.57;;;;;;;9.31;100.00;95408.47;5463607;26;20328;-74
2024/04/16 08:16:31;;;;;;;2.97;0.50;;;;;;;8.98;100.00;95407.34;5465167;26;20220;-74
2024/04/16 08:18:57;;;;;;;2.00;0.70;;;;;;;8.96;100.00;95408.53;5466614;26;20469;-74
2024/04/16 08:21:25;;;;;;;0.90;0.33;;;;;;;8.75;100.00;95417.22;5465777;26;20225;-74
2024/04/16 08:23:51;;;;;;;1.10;0.60;;;;;;;8.89;100.00;95415.56;5467186;26;20332;-74
2024/04/16 08:26:20;;;;;;;1.27;0.90;;;;;;;8.96;100.00;95406.75;5468345;26;20236;-73
2024/04/16 08:28:45;;;;;;;0.50;0.50;;;;;;;8.88;97.10;95398.94;5468189;26;20225;-74
2024/04/16 08:31:16;;;;;;;1.47;0.90;;;;;;;9.12;95.58;95406.47;5465246;26;20316;-74
2024/04/16 08:33:42;;;;;;;1.43;0.90;;;;;;;8.99;89.81;95414.25;5468598;26;20259;-74
2024/04/16 08:36:11;;;;;;;6.70;1.27;;;;;;;9.21;96.30;95413.22;5466717;26;20305;-74
2024/04/16 08:38:36;;;;;;;0.70;0.60;;;;;;;9.38;94.51;95409.34;5467260;26;20288;-74
2024/04/16 08:41:05;;;;;;;2.10;0.90;;;;;;;9.38;95.42;95404.91;5466728;26;20280;-74
2024/04/16 08:43:33;;;;;;;3.60;0.60;;;;;;;9.16;89.67;95399.84;5468073;26;20263;-74
2024/04/16 08:46:04;;;;;;;1.40;1.00;;;;;;;9.50;91.36;95408.63;5466303;26;20476;-73
2024/04/16 08:48:34;;;;;;;0.97;0.50;;;;;;;9.51;88.91;95420.78;5468073;26;20463;-74
2024/04/16 08:51:03;;;;;;;0.97;0.67;;;;;;;9.65;89.14;95409.38;5466879;26;20300;-74
2024/04/16 08:53:32;;;;;;;0.70;0.70;;;;;;;9.81;90.14;95402.00;5466336;26;20275;-74
2024/04/16 08:56:01;;;;;;;1.70;0.63;;;;;;;9.91;87.47;95399.00;5467012;26;20730;-74
2024/04/16 08:58:26;;;;;;;4.07;1.13;;;;;;;9.71;82.91;95414.69;5467071;26;20719;-74
2024/04/16 09:00:56;;;;;;;1.10;0.90;;;;;;;9.96;81.82;95410.63;5466322;26;20302;-73
2024/04/16 09:03:24;;;;;;;0.70;0.70;;;;;;;9.74;76.34;95410.84;5466630;26;20882;-74
2024/04/16 09:05:56;;;;;;;1.67;1.00;;;;;;;9.84;75.25;95371.88;5467072;26;20839;-74
2024/04/16 09:08:23;;;;;;;0.73;0.60;;;;;;;10.14;75.35;95375.91;5467780;26;20232;-74
2024/04/16 09:10:52;;;;;;;0.47;0.47;;;;;;;9.95;65.65;95385.28;5466821;26;20746;-74
2024/04/16 09:13:17;;;;;;;2.97;0.60;;;;;;;9.61;64.94;95358.16;5466662;26;20297;-75
2024/04/16 09:15:46;;;;;;;0.67;0.53;;;;;;;9.90;65.75;95369.28;5465098;26;20340;-74
2024/04/16 09:18:11;;;;;;;6.10;0.63;;;;;;;10.18;67.54;95371.88;5462610;26;20292;-74
2024/04/16 09:20:40;;;;;;;0.67;0.63;;;;;;;10.11;66.41;95366.56;5464320;26;20333;-74
2024/04/16 09:23:08;;;;;;;0.83;0.47;;;;;;;10.21;66.46;95367.03;5466814;26;20285;-74
2024/04/16 09:25:41;;;;;;;0.40;0.40;;;;;;;10.13;68.61;95369.84;5465986;26;20233;-74
2024/04/16 09:28:06;;;;;;;0.97;0.67;;;;;;;10.06;66.24;95379.50;5466545;26;20571;-74
2024/04/16 09:30:34;;;;;;;0.50;0.50;;;;;;;10.09;65.08;95384.38;5466014;26;20267;-74
2024/04/16 09:33:01;;;;;;;1.77;1.00;;;;;;;9.98;64.68;95407.78;5465648;26;20300;-75
2024/04/16 09:35:30;;;;;;;1.43;0.50;;;;;;;9.86;64.42;95385.63;5464940;26;20233;-74
2024/04/16 09:38:00;;;;;;;0.83;0.40;;;;;;;9.88;64.03;95387.06;5462507;26;20226;-73
2024/04/16 09:40:32;;;;;;;1.47;0.80;;;;;;;10.13;65.58;95388.25;5464977;26;20221;-74
2024/04/16 09:42:58;;;;;;;0.30;0.30;;;;;;;10.14;65.19;95418.81;5461716;26;20354;-74
2024/04/16 09:45:26;;;;;;;1.37;0.60;;;;;;;9.85;63.52;95384.81;5465389;26;20957;-73
2024/04/16 09:47:54;;;;;;;3.33;1.10;;;;;;;9.87;62.28;95374.91;5463522;26;20818;-73
2024/04/16 09:50:24;;;;;;;1.43;0.57;;;;;;;10.31;63.79;95356.13;5464174;26;20228;-73
2024/04/16 09:52:51;;;;;;;2.57;0.67;;;;;;;10.30;63.49;95365.84;5463590;26;20225;-74
2024/04/16 09:55:20;;;;;;;1.73;0.60;;;;;;;10.79;65.31;95367.22;5464626;26;20234;-74
2024/04/16 09:57:49;;;;;;;1.30;0.77;;;;;;;10.93;64.96;95359.16;5463930;26;20811;-74
2024/04/16 10:00:18;;;;;;;1.30;0.80;;;;;;;10.48;63.14;95377.47;5467139;26;20267;-73
2024/04/16 10:02:45;;;;;;;2.03;1.03;;;;;;;10.66;63.72;95358.50;5464304;26;20224;-74
2024/04/16 10:05:14;;;;;;;1.20;0.90;;;;;;;10.68;63.23;95354.66;5465959;26;20761;-74
2024/04/16 10:07:41;;;;;;;0.97;0.53;;;;;;;10.60;64.02;95356.63;5466564;26;21578;-75
2024/04/16 10:10:10;;;;;;;1.47;0.50;;;;;;;10.89;63.64;95343.13;5467073;26;20241;-74
2024/04/16 10:12:40;;;;;;;0.73;0.73;;;;;;;10.83;62.75;95349.19;5465174;26;20237;-74
2024/04/16 10:15:12;;;;;;;0.40;0.40;;;;;;;11.02;65.13;95357.13;5466952;26;20299;-75
2024/04/16 10:17:51;;;;;;;0.93;0.60;;;;;;;10.95;63.99;95356.31;5466737;26;20301;-74
2024/04/16 10:20:17;;;;;;;2.03;0.87;;;;;;;10.85;64.41;95344.56;5465863;26;20237;-75
2024/04/16 10:22:53;;;;;;;0.43;0.40;;;;;;;11.01;64.35;95347.63;5464694;26;20228;-75
2024/04/16 10:25:26;;;;;;;1.13;1.03;;;;;;;11.24;62.81;95346.22;5465785;26;20320;-74
2024/04/16 10:27:54;;;;;;;0.43;0.40;;;;;;;11.24;61.93;95340.13;5465554;26;20784;-75
2024/04/16 10:30:27;;;;;;;2.23;0.83;;;;;;;11.59;61.27;95345.03;5466495;26;20253;-74
2024/04/16 10:32:58;;;;;;;2.27;0.80;;;;;;;11.51;61.66;95347.88;5465619;26;20286;-75
2024/04/16 10:35:25;;;;;;;0.97;0.70;;;;;;;10.62;60.82;95333.56;5466322;26;20856;-74
2024/04/16 10:37:53;;;;;;;1.07;0.47;;;;;;;10.76;61.06;95338.66;5465222;26;20233;-74
2024/04/16 10:40:23;;;;;;;2.47;1.20;;;;;;;10.99;61.27;95332.00;5465679;26;20425;-74
2024/04/16 10:42:51;;;;;;;0.83;0.80;;;;;;;10.87;61.00;95322.25;5464916;26;20267;-75
2024/04/16 10:45:17;;;;;;;0.40;0.40;;;;;;;10.99;59.83;95325.91;5465489;26;20301;-74
2024/04/16 10:47:48;;;;;;;1.07;0.60;;;;;;;11.29;60.21;95312.16;5465858;26;20232;-75
2024/04/16 10:50:14;;;;;;;1.70;0.30;;;;;;;11.43;59.95;95323.47;5465924;26;20687;-75
2024/04/16 10:52:42;;;;;;;0.50;0.50;;;;;;;11.29;58.10;95321.88;5464508;26;20237;-75
2024/04/16 10:55:07;;;;;;;0.20;0.20;;;;;;;11.58;60.54;95312.56;5465715;26;20224;-75
2024/04/16 10:57:36;;;;;;;0.30;0.30;;;;;;;12.12;58.95;95304.28;5465537;26;20240;-74
2024/04/16 11:00:02;;;;;;;0.30;0.30;;;;;;;12.28;57.00;95309.91;5460990;26;20248;-74
2024/04/16 11:02:30;;;;;;;4.60;0.50;;;;;;;11.81;57.70;95297.09;5459844;26;20237;-76
2024/04/16 11:05:00;;;;;;;0.47;0.47;;;;;;;12.01;59.84;95297.03;5463657;26;20293;-74
2024/04/16 11:07:28;;;;;;;0.30;0.30;;;;;;;11.49;58.14;95307.66;5463992;26;20555;-74
2024/04/16 11:09:57;;;;;;;0.40;0.40;;;;;;;11.73;58.83;95302.56;5462609;26;20309;-75
2024/04/16 11:12:25;;;;;;;2.13;0.50;;;;;;;11.32;59.34;95310.94;5463230;26;20279;-74
2024/04/16 11:14:51;;;;;;;0.30;0.30;;;;;;;11.46;58.85;95305.44;5463483;26;20368;-74
2024/04/16 11:17:19;;;;;;;8.40;0.90;;;;;;;11.55;60.34;95291.03;5463328;26;20325;-74
2024/04/16 11:19:46;;;;;;;0.50;0.50;;;;;;;11.43;59.75;95305.84;5462873;26;20582;-74
2024/04/16 11:22:17;;;;;;;0.60;0.60;;;;;;;11.48;59.49;95300.78;5462754;26;20333;-74
2024/04/16 11:24:43;;;;;;;0.30;0.30;;;;;;;11.10;60.18;95312.16;5463001;26;20272;-75
2024/04/16 11:27:13;;;;;;;2.67;0.47;;;;;;;10.99;60.11;95310.09;5462777;26;20269;-74
2024/04/16 11:29:45;;;;;;;0.50;0.33;;;;;;;11.47;59.53;95303.59;5463235;26;20228;-74
2024/04/16 11:32:13;;;;;;;0.60;0.60;;;;;;;11.27;60.32;95306.25;5461846;26;20301;-74
2024/04/16 11:34:42;;;;;;;0.30;0.30;;;;;;;11.32;58.63;95306.44;5461494;26;20331;-74
2024/04/16 11:37:10;;;;;;;1.87;0.60;;;;;;;11.07;59.15;95297.53;5463670;26;20323;-74
2024/04/16 11:39:39;;;;;;;0.30;0.30;;;;;;;11.25;58.60;95305.66;5464454;26;20343;-74